12:38
Airports
Links
Donate
Help keep this website running!
PayPal
Bitcoin
METAR
KBED 181156Z 00000KT 10SM OVC025 M06/M12 A3018 RMK AO2 SLP239 T10561117 11056 21078 55005
Current Weather Conditions at KBED
MVFR 11:56:00 18-12-17
Automated station
Altimeter:30.18 hg
Temp:-5.6°c 23°f
Dew point:-11.7°c 12°f
Wind:0 knots, 0 mph, 0 m/s,
Variable direction
Visibility:10.0 statute miles
2500(OVC) Overcast
Past METAR reports
MVFR 11:09:00 18-12-17
Automated station, no observer
Altimeter:30.18 hg
Temp:-5.6°c 23°f
Dew point:-12.8°c 10°f
Wind:0 knots, 0 mph, 0 m/s,
Variable direction
Visibility:10.0 statute miles
11000(BKN) Broken
5000(BKN) Broken
2800(BKN) Broken
KBED 181109Z AUTO 00000KT 10SM BKN028 BKN050 BKN110 M06/M13 A3018 RMK AO2 T10561128
VFR 10:56:00 18-12-17
Automated station, no observer
Altimeter:30.18 hg
Temp:-5.6°c 23°f
Dew point:-12.8°c 10°f
Wind:0 knots, 0 mph, 0 m/s,
Variable direction
Visibility:10.0 statute miles
7000(BKN) Broken
5000(BKN) Broken
2800(FEW) A few
KBED 181056Z AUTO 00000KT 10SM FEW028 BKN050 BKN070 M06/M13 A3018 RMK AO2 SLP237 T10561128
VFR 09:56:00 18-12-17
Automated station, no observer
Altimeter:30.18 hg
Temp:-6.1°c 21°f
Dew point:-12.2°c 10°f
Wind:3 knots, 3.5 mph, 2 m/s, from 70°
Visibility:10.0 statute miles
6000(OVC) Overcast
KBED 180956Z AUTO 07003KT 10SM OVC060 M06/M12 A3018 RMK AO2 SLP236 T10611122
VFR 08:56:00 18-12-17
Automated station, no observer
Altimeter:30.20 hg
Temp:-6.7°c 21°f
Dew point:-11.1°c 12°f
Wind:0 knots, 0 mph, 0 m/s,
Variable direction
Visibility:10.0 statute miles
11000(OVC) Overcast
8500(BKN) Broken
6000(FEW) A few
KBED 180856Z AUTO 00000KT 10SM FEW060 BKN085 OVC110 M07/M11 A3020 RMK AO2 SLP244 T10671111 58009
VFR 07:56:00 18-12-17
Automated station, no observer
Altimeter:30.23 hg
Temp:-6.7°c 21°f
Dew point:-12.2°c 10°f
Wind:0 knots, 0 mph, 0 m/s,
Variable direction
Visibility:10.0 statute miles
8500(BKN) Broken
KBED 180756Z AUTO 00000KT 10SM BKN085 M07/M12 A3023 RMK AO2 SLP254 T10671122
VFR 06:56:00 18-12-17
Automated station, no observer
Altimeter:30.24 hg
Temp:-7.2°c 19°f
Dew point:-10.6°c 14°f
Wind:0 knots, 0 mph, 0 m/s,
Variable direction
Visibility:10.0 statute miles
(CLR) Clear
KBED 180656Z AUTO 00000KT 10SM CLR M07/M11 A3024 RMK AO2 SLP256 T10721106
TAF
KBED 181120Z 1812/1912 00000KT P6SM VCSH BKN025 OVC040 FM181400 00000KT P6SM OVC020 FM181600 VRB03KT P6SM VCSH OVC020 FM182100 VRB03KT 2SM BR OVC015 FM182300 00000KT 2SM BR VCSH OVC010 FM190100 00000KT 2SM BR OVC020 FM190300 VRB03KT P6SM OVC045
Forecast at KBED
12:00 18-12-17 to 14:00 18-12-17
VCSH
Wind:0 Knots Variable direction
Visibility:6.21 statute miles
2500BKN Broken
4000OVC Overcast
FM 14:00 18-12-17 to 16:00 18-12-17
Wind:0 Knots Variable direction
Visibility:6.21 statute miles
2000OVC Overcast
FM 16:00 18-12-17 to 21:00 18-12-17
VCSH
Wind:3 Knots from 360°
Visibility:6.21 statute miles
2000OVC Overcast
FM 21:00 18-12-17 to 23:00 18-12-17
BR
Wind:3 Knots from 360°
Visibility:2.0 statute miles
1500OVC Overcast
FM 23:00 18-12-17 to 01:00 19-12-17
BR VCSH
Wind:0 Knots Variable direction
Visibility:2.0 statute miles
1000OVC Overcast
FM 01:00 19-12-17 to 03:00 19-12-17
BR
Wind:0 Knots Variable direction
Visibility:2.0 statute miles
2000OVC Overcast
FM 03:00 19-12-17 to 12:00 19-12-17
Wind:3 Knots from 360°
Visibility:6.21 statute miles
4500OVC Overcast